| time (UTC) | temp F | wind direction | speed knots | gust knots | rain 1hr in | rain 24hr in | rain mn in | humidity % | barometer mb |
| 20260507100953 | 51 | 318 | 0.0 | 0.0 | 0.00 | 0.27 | 0.27 | 95 | 1013.4 |
| 20260507100450 | 51 | 16 | 0.0 | 0.9 | 0.00 | 0.27 | 0.27 | 94 | 1013.5 |
| 20260507095948 | 51 | 289 | 0.0 | 0.0 | 0.00 | 0.27 | 0.27 | 94 | 1013.5 |
| 20260507095445 | 51 | 321 | 0.0 | 0.0 | 0.00 | 0.27 | 0.27 | 95 | 1013.3 |
| 20260507094942 | 52 | 281 | 0.9 | 1.7 | 0.00 | 0.27 | 0.27 | 96 | 1013.4 |
| 20260507094438 | 51 | 324 | 0.0 | 0.0 | 0.00 | 0.27 | 0.27 | 97 | 1013.7 |
| 20260507093935 | 51 | 41 | 0.0 | 0.0 | 0.00 | 0.27 | 0.27 | 98 | 1013.6 |
| 20260507093433 | 52 | 137 | 0.0 | 0.0 | 0.00 | 0.27 | 0.27 | 98 | 1013.7 |
| 20260507092931 | 52 | 284 | 0.0 | 0.0 | 0.00 | 0.27 | 0.27 | 99 | 1013.9 |
| 20260507092427 | 52 | 91 | 0.0 | 0.0 | 0.00 | 0.27 | 0.27 | 99 | 1013.8 |
| 20260507091924 | 52 | 21 | 0.0 | 0.0 | 0.00 | 0.27 | 0.27 | 99 | 1013.7 |
| 20260507091421 | 52 | 29 | 0.0 | 0.0 | 0.00 | 0.27 | 0.27 | 99 | 1013.7 |
| 20260507090916 | 52 | 42 | 0.0 | 0.0 | 0.00 | 0.27 | 0.27 | 99 | 1013.5 |
| 20260507090413 | 52 | 338 | 0.0 | 0.0 | 0.00 | 0.27 | 0.27 | 99 | 1013.5 |
| 20260507085909 | 52 | 49 | 0.0 | 0.0 | 0.00 | 0.27 | 0.27 | 99 | 1013.3 |
| 20260507085406 | 52 | 329 | 0.0 | 0.0 | 0.00 | 0.27 | 0.27 | 99 | 1013.3 |
| 20260507084904 | 52 | 68 | 0.0 | 0.0 | 0.00 | 0.27 | 0.27 | 98 | 1013.2 |
| 20260507084400 | 52 | 338 | 0.0 | 0.0 | 0.00 | 0.27 | 0.27 | 98 | 1013.3 |
| 20260507083858 | 52 | 25 | 0.0 | 0.0 | 0.00 | 0.27 | 0.27 | 98 | 1013.0 |
| 20260507083354 | 52 | 340 | 0.0 | 0.0 | 0.00 | 0.27 | 0.27 | 98 | 1013.0 |
| 20260507082850 | 52 | 341 | 0.0 | 0.0 | 0.00 | 0.27 | 0.27 | 98 | 1012.8 |
| 20260507082346 | 52 | 334 | 0.0 | 0.0 | 0.00 | 0.27 | 0.27 | 98 | 1012.7 |
| 20260507081843 | 52 | 294 | 0.0 | 0.0 | 0.00 | 0.27 | 0.27 | 98 | 1013.0 |
| 20260507081339 | 52 | 321 | 0.0 | 0.0 | 0.00 | 0.27 | 0.27 | 97 | 1012.8 |
| 20260507080836 | 52 | 317 | 0.0 | 0.0 | 0.00 | 0.27 | 0.27 | 97 | 1012.8 |
| 20260507080332 | 52 | 127 | 0.0 | 0.0 | 0.00 | 0.27 | 0.27 | 97 | 1012.8 |
| 20260507075828 | 52 | 334 | 0.0 | 0.0 | 0.00 | 0.27 | 0.27 | 97 | 1012.6 |
| 20260507075324 | 52 | 305 | 0.0 | 0.0 | 0.00 | 0.27 | 0.27 | 97 | 1012.3 |
| 20260507074821 | 52 | 321 | 0.9 | 0.9 | 0.07 | 0.27 | 0.27 | 96 | 1012.5 |
| 20260507074318 | 52 | 214 | 0.0 | 0.0 | 0.07 | 0.27 | 0.27 | 96 | 1012.4 |
| 20260507073815 | 52 | 271 | 0.0 | 0.0 | 0.00 | 0.26 | 0.26 | 96 | 1012.4 |
| 20260507073312 | 52 | 307 | 0.9 | 1.7 | 0.00 | 0.26 | 0.26 | 96 | 1012.7 |
| 20260507072809 | 53 | 333 | 1.7 | 1.7 | 0.00 | 0.26 | 0.26 | 97 | 1012.3 |
| 20260507072308 | 53 | 348 | 0.0 | 0.9 | 0.00 | 0.26 | 0.26 | 98 | 1012.7 |
| 20260507071804 | 53 | 220 | 0.0 | 0.0 | 0.00 | 0.26 | 0.26 | 98 | 1012.4 |
| 20260507071300 | 53 | 217 | 0.0 | 0.0 | 0.00 | 0.26 | 0.26 | 98 | 1012.5 |
| 20260507070757 | 53 | 349 | 0.0 | 0.0 | 0.00 | 0.26 | 0.26 | 98 | 1012.8 |
| 20260507070254 | 53 | 310 | 0.9 | 0.9 | 0.00 | 0.26 | 0.26 | 98 | 1012.8 |
| 20260507065751 | 53 | 181 | 0.0 | 0.0 | 0.00 | 0.26 | 0.26 | 98 | 1012.7 |
| 20260507065247 | 53 | 198 | 0.9 | 1.7 | 0.00 | 0.26 | 0.26 | 98 | 1012.7 |
| 20260507064745 | 54 | 299 | 0.9 | 0.9 | 0.00 | 0.26 | 0.26 | 98 | 1012.6 |
| 20260507064243 | 54 | 349 | 0.0 | 0.0 | 0.00 | 0.26 | 0.26 | 98 | 1012.4 |
| 20260507063740 | 54 | 55 | 0.0 | 0.0 | 0.00 | 0.26 | 0.26 | 98 | 1012.5 |
| 20260507063237 | 54 | 282 | 0.9 | 0.9 | 0.00 | 0.26 | 0.26 | 98 | 1012.7 |
| 20260507062734 | 54 | 316 | 0.0 | 0.9 | 0.00 | 0.26 | 0.26 | 98 | 1012.4 |
| 20260507062231 | 54 | 108 | 0.0 | 0.0 | 0.00 | 0.26 | 0.26 | 98 | 1012.9 |
| 20260507061730 | 54 | 342 | 0.0 | 0.0 | 0.00 | 0.26 | 0.26 | 98 | 1012.5 |
| 20260507061227 | 55 | 339 | 0.9 | 0.9 | 0.00 | 0.26 | 0.26 | 97 | 1012.6 |
| 20260507060725 | 54 | 317 | 0.0 | 0.0 | 0.00 | 0.26 | 0.26 | 97 | 1012.4 |
| 20260507060221 | 55 | 297 | 0.0 | 0.9 | 0.00 | 0.26 | 0.26 | 97 | 1012.6 |
| 20260507055718 | 55 | 54 | 0.0 | 0.0 | 0.00 | 0.26 | 0.26 | 97 | 1012.6 |
| 20260507055213 | 55 | 255 | 0.9 | 0.9 | 0.00 | 0.26 | 0.26 | 97 | 1012.9 |
| 20260507054709 | 55 | 32 | 0.0 | 0.0 | 0.00 | 0.26 | 0.26 | 97 | 1012.8 |
| 20260507054207 | 55 | 273 | 0.9 | 1.7 | 0.05 | 0.26 | 0.26 | 97 | 1012.9 |
| 20260507053704 | 55 | 352 | 0.0 | 0.0 | 0.05 | 0.26 | 0.26 | 97 | 1012.8 |
| 20260507053202 | 56 | 329 | 0.9 | 1.7 | 0.00 | 0.25 | 0.25 | 98 | 1012.5 |
| 20260507052701 | 56 | 337 | 0.9 | 0.9 | 0.00 | 0.25 | 0.25 | 98 | 1012.8 |
| 20260507052156 | 57 | 0 | 0.0 | 0.0 | 0.07 | 0.25 | 0.25 | 98 | 1012.8 |
| 20260507051654 | 57 | 314 | 0.0 | 0.0 | 0.35 | 0.25 | 0.25 | 97 | 1012.6 |
| 20260507051150 | 57 | 240 | 0.0 | 0.0 | 0.83 | 0.24 | 0.24 | 97 | 1012.9 |
| 20260507050647 | 58 | 270 | 1.7 | 1.7 | 0.66 | 0.20 | 0.20 | 96 | 1013.1 |
| 20260507050144 | 58 | 298 | 0.9 | 0.9 | 0.42 | 0.10 | 0.10 | 95 | 1013.0 |
| 20260507045640 | 59 | 8 | 0.9 | 0.9 | 0.42 | 0.07 | 0.07 | 93 | 1013.0 |
| 20260507045132 | 59 | 231 | 0.0 | 0.0 | 0.24 | 0.04 | 0.04 | 90 | 1012.6 |
| 20260507044629 | 60 | 312 | 0.0 | 0.0 | 0.00 | 0.00 | 0.00 | 88 | 1012.7 |
| 20260507044126 | 60 | 316 | 0.0 | 0.0 | 0.00 | 0.00 | 0.00 | 87 | 1012.3 |
| 20260507043621 | 60 | 173 | 0.0 | 0.0 | 0.00 | 0.00 | 0.00 | 85 | 1012.6 |
| 20260507043119 | 60 | 212 | 1.7 | 1.7 | 0.00 | 0.00 | 0.00 | 86 | 1012.5 |
| 20260507042614 | 60 | 242 | 0.9 | 1.7 | 0.00 | 0.00 | 0.00 | 85 | 1012.6 |
| 20260507042104 | 61 | 312 | 0.0 | 0.0 | 0.00 | 0.00 | 0.00 | 86 | 1012.4 |
| 20260507041601 | 61 | 2 | 0.0 | 0.0 | 0.00 | 0.00 | 0.00 | 84 | 1012.1 |
| 20260507041058 | 61 | 192 | 2.6 | 3.5 | 0.00 | 0.00 | 0.00 | 85 | 1012.2 |
| 20260507040555 | 61 | 243 | 0.0 | 0.9 | 0.00 | 0.00 | 0.00 | 86 | 1012.1 |
| 20260507040051 | 62 | 335 | 1.7 | 1.7 | 0.00 | 0.11 | 0.11 | 86 | 1011.8 |
| 20260507035547 | 62 | 305 | 0.0 | 0.0 | 0.00 | 0.11 | 0.11 | 87 | 1011.7 |
| 20260507035043 | 62 | 338 | 0.0 | 0.0 | 0.00 | 0.11 | 0.11 | 86 | 1011.8 |
| 20260507034540 | 62 | 330 | 0.0 | 0.0 | 0.00 | 0.11 | 0.11 | 85 | 1011.7 |
| 20260507034038 | 63 | 336 | 0.0 | 0.0 | 0.00 | 0.11 | 0.11 | 86 | 1011.8 |
| 20260507033536 | 63 | 320 | 0.9 | 1.7 | 0.00 | 0.11 | 0.11 | 86 | 1012.4 |
| 20260507033033 | 63 | 270 | 1.7 | 1.7 | 0.00 | 0.11 | 0.11 | 86 | 1012.2 |
| 20260507032530 | 63 | 323 | 1.7 | 1.7 | 0.00 | 0.11 | 0.11 | 86 | 1011.8 |
| 20260507032026 | 63 | 355 | 0.0 | 0.0 | 0.00 | 0.11 | 0.11 | 86 | 1011.8 |
| 20260507031522 | 63 | 278 | 0.0 | 0.0 | 0.00 | 0.11 | 0.11 | 86 | 1012.0 |
| 20260507031020 | 64 | 303 | 0.9 | 0.9 | 0.00 | 0.11 | 0.11 | 86 | 1011.9 |
| 20260507030516 | 64 | 251 | 0.9 | 0.9 | 0.00 | 0.11 | 0.11 | 85 | 1011.6 |
| 20260507030014 | 64 | 307 | 0.9 | 0.9 | 0.00 | 0.11 | 0.11 | 84 | 1011.2 |
| 20260507025511 | 64 | 209 | 0.9 | 1.7 | 0.00 | 0.11 | 0.11 | 83 | 1011.5 |
| 20260507025009 | 64 | 323 | 0.0 | 0.0 | 0.00 | 0.11 | 0.11 | 83 | 1011.5 |
| 20260507024506 | 64 | 239 | 0.9 | 0.9 | 0.00 | 0.11 | 0.11 | 82 | 1011.4 |
| 20260507024003 | 64 | 236 | 2.6 | 3.5 | 0.00 | 0.11 | 0.11 | 81 | 1011.2 |
| 20260507023459 | 65 | 340 | 1.7 | 1.7 | 0.00 | 0.11 | 0.11 | 81 | 1011.0 |
| 20260507022956 | 65 | 319 | 0.0 | 0.9 | 0.00 | 0.11 | 0.11 | 80 | 1011.1 |
| 20260507022453 | 65 | 338 | 1.7 | 2.6 | 0.00 | 0.11 | 0.11 | 81 | 1011.3 |
| 20260507021948 | 65 | 1 | 0.0 | 0.0 | 0.00 | 0.11 | 0.11 | 82 | 1011.2 |
| 20260507021444 | 65 | 27 | 1.7 | 2.6 | 0.00 | 0.11 | 0.11 | 81 | 1011.4 |
| 20260507020942 | 65 | 290 | 5.2 | 7.0 | 0.00 | 0.11 | 0.11 | 83 | 1011.5 |
| 20260507020438 | 65 | 141 | 0.9 | 1.7 | 0.00 | 0.11 | 0.11 | 84 | 1011.1 |
| 20260507015935 | 66 | 26 | 0.9 | 1.7 | 0.00 | 0.11 | 0.11 | 88 | 1010.9 |
| 20260507015433 | 66 | 343 | 0.9 | 0.9 | 0.00 | 0.11 | 0.11 | 88 | 1011.1 |
| 20260507014924 | 67 | 194 | 2.6 | 3.5 | 0.00 | 0.11 | 0.11 | 88 | 1011.1 |
| 20260507014420 | 67 | 340 | 2.6 | 3.5 | 0.00 | 0.11 | 0.11 | 87 | 1011.2 |
| 20260507013916 | 67 | 273 | 3.5 | 5.2 | 0.00 | 0.11 | 0.11 | 87 | 1011.4 |
| 20260507013413 | 67 | 302 | 2.6 | 3.5 | 0.00 | 0.11 | 0.11 | 86 | 1011.4 |
| 20260507012906 | 67 | 329 | 3.5 | 6.1 | 0.00 | 0.11 | 0.11 | 88 | 1011.4 |
| 20260507012401 | 67 | 120 | 0.0 | 0.0 | 0.00 | 0.11 | 0.11 | 88 | 1011.2 |
| 20260507011853 | 67 | 327 | 0.9 | 1.7 | 0.00 | 0.11 | 0.11 | 88 | 1011.2 |
| 20260507011349 | 67 | 239 | 0.0 | 0.0 | 0.00 | 0.11 | 0.11 | 88 | 1011.4 |
| 20260507010843 | 67 | 253 | 0.0 | 0.0 | 0.00 | 0.11 | 0.11 | 87 | 1011.1 |
| 20260507010339 | 67 | 257 | 0.0 | 0.0 | 0.00 | 0.11 | 0.11 | 87 | 1010.9 |
| 20260507005837 | 68 | 112 | 0.0 | 0.0 | 0.00 | 0.11 | 0.11 | 87 | 1011.0 |
| 20260507005333 | 68 | 109 | 0.0 | 0.0 | 0.00 | 0.11 | 0.11 | 86 | 1010.9 |
| 20260507004831 | 68 | 185 | 1.7 | 1.7 | 0.00 | 0.11 | 0.11 | 86 | 1011.0 |
| 20260507004327 | 68 | 197 | 0.9 | 1.7 | 0.00 | 0.11 | 0.11 | 86 | 1010.9 |
| 20260507003824 | 68 | 279 | 0.0 | 0.9 | 0.00 | 0.11 | 0.11 | 86 | 1010.9 |
| 20260507003321 | 68 | 204 | 0.0 | 0.0 | 0.00 | 0.11 | 0.11 | 86 | 1010.8 |
| 20260507002815 | 68 | 276 | 0.9 | 0.9 | 0.00 | 0.11 | 0.11 | 86 | 1010.7 |
| 20260507002311 | 68 | 263 | 0.9 | 0.9 | 0.00 | 0.11 | 0.11 | 86 | 1010.8 |
| 20260507001803 | 68 | 355 | 0.0 | 0.0 | 0.00 | 0.11 | 0.11 | 86 | 1010.6 |
| 20260507001300 | 68 | 243 | 0.0 | 0.0 | 0.00 | 0.11 | 0.11 | 85 | 1010.6 |
| 20260507000756 | 68 | 236 | 0.9 | 0.9 | 0.00 | 0.11 | 0.11 | 85 | 1010.6 |
| 20260507000252 | 68 | 249 | 0.0 | 0.0 | 0.00 | 0.11 | 0.11 | 86 | 1010.6 |
| 20260506235749 | 68 | 144 | 0.9 | 1.7 | 0.00 | 0.11 | 0.11 | 85 | 1010.4 |
| 20260506235244 | 68 | 270 | 0.9 | 0.9 | 0.00 | 0.11 | 0.11 | 85 | 1010.5 |
| 20260506234742 | 68 | 188 | 0.0 | 0.9 | 0.00 | 0.11 | 0.11 | 85 | 1010.2 |
| 20260506234239 | 68 | 56 | 0.0 | 0.0 | 0.00 | 0.11 | 0.11 | 85 | 1010.3 |
| 20260506233736 | 68 | 253 | 0.0 | 0.0 | 0.00 | 0.11 | 0.11 | 85 | 1010.2 |
| 20260506233233 | 69 | 69 | 0.0 | 0.0 | 0.00 | 0.11 | 0.11 | 85 | 1010.1 |
| 20260506232729 | 69 | 213 | 0.9 | 1.7 | 0.00 | 0.11 | 0.11 | 84 | 1009.9 |
| 20260506232224 | 69 | 217 | 0.0 | 0.0 | 0.00 | 0.11 | 0.11 | 84 | 1010.0 |
| 20260506231722 | 69 | 258 | 0.9 | 1.7 | 0.00 | 0.11 | 0.11 | 84 | 1010.0 |
| 20260506231220 | 69 | 2 | 0.0 | 0.0 | 0.00 | 0.11 | 0.11 | 84 | 1010.3 |
| 20260506230716 | 69 | 258 | 0.0 | 0.0 | 0.00 | 0.11 | 0.11 | 84 | 1010.2 |
| 20260506230213 | 69 | 314 | 0.0 | 0.0 | 0.00 | 0.11 | 0.11 | 84 | 1010.1 |
| 20260506225710 | 69 | 320 | 0.0 | 0.0 | 0.00 | 0.11 | 0.11 | 83 | 1010.0 |
| 20260506225207 | 69 | 263 | 0.0 | 0.0 | 0.00 | 0.11 | 0.11 | 83 | 1010.0 |
| 20260506224703 | 69 | 175 | 0.0 | 0.0 | 0.00 | 0.11 | 0.11 | 83 | 1009.9 |
| 20260506224201 | 69 | 187 | 0.0 | 0.0 | 0.00 | 0.11 | 0.11 | 83 | 1010.1 |
| 20260506223656 | 69 | 291 | 0.0 | 0.0 | 0.00 | 0.11 | 0.11 | 83 | 1010.0 |
| 20260506223152 | 69 | 354 | 0.0 | 0.0 | 0.00 | 0.11 | 0.11 | 83 | 1010.1 |
| 20260506222649 | 69 | 270 | 0.0 | 0.0 | 0.00 | 0.11 | 0.11 | 83 | 1010.0 |
| 20260506222145 | 69 | 13 | 0.0 | 0.9 | 0.00 | 0.11 | 0.11 | 82 | 1010.1 |
| 20260506221644 | 69 | 356 | 0.0 | 0.0 | 0.00 | 0.11 | 0.11 | 82 | 1010.1 |
| 20260506221141 | 70 | 170 | 2.6 | 3.5 | 0.00 | 0.11 | 0.11 | 82 | 1010.1 |
| 20260506220638 | 70 | 321 | 0.0 | 0.9 | 0.00 | 0.11 | 0.11 | 82 | 1010.0 |
| 20260506220133 | 70 | 158 | 3.5 | 5.2 | 0.00 | 0.11 | 0.11 | 81 | 1009.9 |
| 20260506215630 | 70 | 163 | 1.7 | 2.6 | 0.00 | 0.11 | 0.11 | 81 | 1009.9 |
| 20260506215125 | 70 | 298 | 0.9 | 1.7 | 0.00 | 0.11 | 0.11 | 81 | 1010.1 |
| 20260506214622 | 70 | 288 | 2.6 | 3.5 | 0.00 | 0.11 | 0.11 | 81 | 1009.9 |
| 20260506214120 | 70 | 8 | 0.0 | 0.0 | 0.00 | 0.11 | 0.11 | 81 | 1010.0 |
| 20260506213618 | 70 | 196 | 0.9 | 2.6 | 0.00 | 0.11 | 0.11 | 80 | 1009.8 |
| 20260506213115 | 70 | 306 | 0.0 | 0.9 | 0.00 | 0.11 | 0.11 | 81 | 1009.9 |
| 20260506212612 | 70 | 98 | 0.9 | 1.7 | 0.00 | 0.11 | 0.11 | 81 | 1010.0 |
| 20260506212107 | 70 | 128 | 0.9 | 1.7 | 0.00 | 0.11 | 0.11 | 80 | 1009.8 |
| 20260506211603 | 70 | 336 | 0.9 | 1.7 | 0.00 | 0.11 | 0.11 | 81 | 1009.6 |
| 20260506211100 | 70 | 304 | 0.0 | 0.0 | 0.00 | 0.11 | 0.11 | 81 | 1009.9 |
| 20260506210556 | 70 | 128 | 1.7 | 2.6 | 0.00 | 0.11 | 0.11 | 80 | 1009.4 |
| 20260506210053 | 70 | 137 | 0.9 | 0.9 | 0.00 | 0.11 | 0.11 | 81 | 1009.8 |
| 20260506205550 | 70 | 266 | 0.0 | 0.0 | 0.00 | 0.11 | 0.11 | 82 | 1009.4 |
| 20260506205044 | 69 | 122 | 0.0 | 0.0 | 0.00 | 0.11 | 0.11 | 82 | 1009.6 |
| 20260506204543 | 69 | 252 | 1.7 | 2.6 | 0.00 | 0.11 | 0.11 | 81 | 1009.4 |
| 20260506204039 | 70 | 200 | 1.7 | 1.7 | 0.00 | 0.11 | 0.11 | 82 | 1009.8 |
| 20260506203538 | 70 | 190 | 0.9 | 0.9 | 0.00 | 0.11 | 0.11 | 81 | 1009.5 |
| 20260506203034 | 70 | 31 | 0.0 | 0.9 | 0.00 | 0.11 | 0.11 | 79 | 1009.6 |
| 20260506202532 | 70 | 179 | 0.0 | 0.0 | 0.00 | 0.11 | 0.11 | 80 | 1009.6 |
| 20260506202028 | 70 | 189 | 0.0 | 0.9 | 0.00 | 0.11 | 0.11 | 81 | 1009.4 |
| 20260506201526 | 71 | 164 | 2.6 | 2.6 | 0.00 | 0.11 | 0.11 | 80 | 1009.5 |
| 20260506201022 | 71 | 309 | 0.9 | 0.9 | 0.00 | 0.11 | 0.11 | 78 | 1009.3 |
| 20260506200518 | 72 | 237 | 0.9 | 1.7 | 0.00 | 0.11 | 0.11 | 78 | 1009.5 |
| 20260506200015 | 73 | 286 | 1.7 | 1.7 | 0.00 | 0.11 | 0.11 | 76 | 1009.6 |
| 20260506195512 | 72 | 352 | 1.7 | 1.7 | 0.00 | 0.11 | 0.11 | 78 | 1009.4 |
| 20260506195008 | 71 | 34 | 0.9 | 1.7 | 0.00 | 0.11 | 0.11 | 77 | 1009.5 |
| 20260506194506 | 70 | 335 | 0.0 | 0.9 | 0.00 | 0.11 | 0.11 | 81 | 1009.8 |
| 20260506194002 | 70 | 16 | 0.9 | 0.9 | 0.00 | 0.11 | 0.11 | 81 | 1009.7 |
| 20260506193500 | 70 | 217 | 0.0 | 0.0 | 0.00 | 0.11 | 0.11 | 82 | 1009.5 |
| 20260506192956 | 69 | 104 | 0.9 | 0.9 | 0.00 | 0.11 | 0.11 | 82 | 1009.7 |
| 20260506192453 | 69 | 123 | 0.9 | 1.7 | 0.00 | 0.11 | 0.11 | 82 | 1009.7 |
| 20260506191949 | 69 | 34 | 2.6 | 3.5 | 0.00 | 0.11 | 0.11 | 82 | 1010.0 |
| 20260506191447 | 69 | 297 | 0.0 | 0.9 | 0.00 | 0.11 | 0.11 | 83 | 1009.9 |
| 20260506190942 | 68 | 240 | 0.9 | 1.7 | 0.00 | 0.11 | 0.11 | 84 | 1010.1 |
| 20260506190440 | 69 | 242 | 2.6 | 3.5 | 0.00 | 0.11 | 0.11 | 83 | 1010.0 |
| 20260506185937 | 68 | 27 | 0.0 | 0.0 | 0.00 | 0.11 | 0.11 | 83 | 1010.2 |
| 20260506185434 | 68 | 324 | 0.9 | 1.7 | 0.00 | 0.11 | 0.11 | 84 | 1010.3 |
| 20260506184931 | 67 | 168 | 0.0 | 0.0 | 0.00 | 0.11 | 0.11 | 85 | 1010.5 |
| 20260506184427 | 67 | 308 | 0.0 | 0.9 | 0.00 | 0.11 | 0.11 | 86 | 1010.4 |
| 20260506183925 | 67 | 95 | 0.0 | 0.0 | 0.00 | 0.11 | 0.11 | 86 | 1010.3 |
| 20260506183420 | 66 | 211 | 0.0 | 0.9 | 0.00 | 0.11 | 0.11 | 86 | 1010.5 |
| 20260506182912 | 66 | 114 | 3.5 | 6.1 | 0.00 | 0.11 | 0.11 | 86 | 1010.4 |
| 20260506182409 | 66 | 178 | 0.9 | 0.9 | 0.00 | 0.11 | 0.11 | 87 | 1010.3 |
| 20260506181907 | 66 | 176 | 0.9 | 0.9 | 0.00 | 0.11 | 0.11 | 87 | 1010.4 |
| 20260506181404 | 66 | 226 | 0.0 | 0.9 | 0.00 | 0.11 | 0.11 | 87 | 1010.5 |
| 20260506180901 | 66 | 193 | 1.7 | 1.7 | 0.00 | 0.11 | 0.11 | 87 | 1010.7 |
| 20260506180357 | 66 | 251 | 5.2 | 12.2 | 0.00 | 0.11 | 0.11 | 88 | 1010.6 |
| 20260506175854 | 66 | 245 | 3.5 | 5.2 | 0.00 | 0.11 | 0.11 | 87 | 1010.8 |
| 20260506175350 | 66 | 256 | 4.3 | 7.0 | 0.00 | 0.11 | 0.11 | 88 | 1010.8 |
| 20260506174848 | 66 | 306 | 0.9 | 0.9 | 0.00 | 0.11 | 0.11 | 88 | 1010.7 |
| 20260506174345 | 65 | 326 | 1.7 | 2.6 | 0.00 | 0.11 | 0.11 | 89 | 1010.6 |
| 20260506173843 | 65 | 304 | 2.6 | 3.5 | 0.00 | 0.11 | 0.11 | 89 | 1010.4 |
| 20260506173339 | 65 | 246 | 0.9 | 1.7 | 0.00 | 0.11 | 0.11 | 91 | 1010.6 |
| 20260506172836 | 64 | 201 | 1.7 | 1.7 | 0.00 | 0.11 | 0.11 | 91 | 1010.8 |
| 20260506172333 | 64 | 347 | 2.6 | 2.6 | 0.00 | 0.11 | 0.11 | 91 | 1010.6 |
| 20260506171830 | 64 | 124 | 0.9 | 1.7 | 0.00 | 0.11 | 0.11 | 92 | 1010.7 |
| 20260506171327 | 64 | 314 | 0.9 | 1.7 | 0.00 | 0.11 | 0.11 | 92 | 1010.9 |
| 20260506170824 | 64 | 323 | 0.9 | 0.9 | 0.00 | 0.11 | 0.11 | 93 | 1010.6 |
| 20260506170315 | 63 | 161 | 2.6 | 3.5 | 0.00 | 0.11 | 0.11 | 93 | 1010.9 |
| 20260506165814 | 63 | 155 | 0.9 | 0.9 | 0.00 | 0.11 | 0.11 | 93 | 1010.8 |
| 20260506165311 | 63 | 311 | 2.6 | 3.5 | 0.00 | 0.11 | 0.11 | 93 | 1011.0 |
| 20260506164808 | 63 | 260 | 0.9 | 0.9 | 0.00 | 0.11 | 0.11 | 94 | 1010.9 |
| 20260506164304 | 63 | 273 | 0.9 | 1.7 | 0.00 | 0.11 | 0.11 | 95 | 1010.9 |
| 20260506163802 | 62 | 71 | 1.7 | 2.6 | 0.00 | 0.11 | 0.11 | 95 | 1010.9 |
| 20260506163256 | 62 | 259 | 0.9 | 1.7 | 0.00 | 0.11 | 0.11 | 95 | 1010.9 |
| 20260506162752 | 62 | 338 | 2.6 | 5.2 | 0.00 | 0.11 | 0.11 | 95 | 1010.9 |
| 20260506162250 | 62 | 315 | 3.5 | 5.2 | 0.00 | 0.11 | 0.11 | 96 | 1011.1 |
| 20260506161747 | 62 | 347 | 0.9 | 0.9 | 0.00 | 0.11 | 0.11 | 96 | 1011.2 |
| 20260506161244 | 62 | 306 | 2.6 | 6.1 | 0.00 | 0.11 | 0.11 | 96 | 1011.0 |
| 20260506160741 | 62 | 66 | 0.0 | 0.9 | 0.00 | 0.11 | 0.11 | 96 | 1011.2 |
| 20260506160238 | 62 | 40 | 0.9 | 0.9 | 0.00 | 0.11 | 0.11 | 96 | 1011.1 |
| 20260506155731 | 62 | 162 | 0.0 | 0.9 | 0.00 | 0.11 | 0.11 | 97 | 1011.3 |
| 20260506155227 | 62 | 324 | 0.9 | 1.7 | 0.00 | 0.11 | 0.11 | 97 | 1011.3 |
| 20260506153335 | 62 | 148 | 0.9 | 0.9 | 0.00 | 0.11 | 0.11 | 97 | 1011.3 |
| 20260506152831 | 62 | 357 | 0.0 | 0.0 | 0.00 | 0.11 | 0.11 | 98 | 1011.1 |
| 20260506152329 | 61 | 348 | 1.7 | 1.7 | 0.00 | 0.11 | 0.11 | 98 | 1011.4 |
| 20260506151827 | 61 | 176 | 1.7 | 2.6 | 0.00 | 0.11 | 0.11 | 98 | 1011.9 |
| 20260506151323 | 61 | 53 | 0.9 | 0.9 | 0.05 | 0.11 | 0.11 | 98 | 1011.9 |
| 20260506150820 | 61 | 55 | 0.0 | 0.9 | 0.05 | 0.11 | 0.11 | 98 | 1011.8 |
| 20260506150318 | 61 | 167 | 0.9 | 0.9 | 0.00 | 0.10 | 0.10 | 97 | 1011.7 |
| 20260506145814 | 61 | 250 | 0.9 | 1.7 | 0.07 | 0.10 | 0.10 | 97 | 1011.9 |
| 20260506145310 | 61 | 293 | 0.9 | 0.9 | 0.19 | 0.10 | 0.10 | 97 | 1012.0 |
| 20260506144808 | 61 | 149 | 0.9 | 1.7 | 0.12 | 0.09 | 0.09 | 96 | 1012.1 |
| 20260506144305 | 61 | 280 | 0.9 | 0.9 | 0.00 | 0.07 | 0.07 | 96 | 1012.0 |
| 20260506143803 | 62 | 356 | 0.9 | 1.7 | 0.00 | 0.07 | 0.07 | 96 | 1011.6 |
| 20260506143300 | 62 | 167 | 0.9 | 1.7 | 0.00 | 0.07 | 0.07 | 95 | 1011.9 |
| 20260506142758 | 62 | 36 | 0.0 | 0.0 | 0.05 | 0.07 | 0.07 | 95 | 1011.7 |
| 20260506142256 | 62 | 254 | 0.0 | 0.9 | 0.05 | 0.07 | 0.07 | 95 | 1011.8 |
| 20260506141754 | 62 | 168 | 2.6 | 2.6 | 0.07 | 0.06 | 0.06 | 95 | 1011.7 |
| 20260506141252 | 62 | 134 | 0.0 | 0.9 | 0.07 | 0.06 | 0.06 | 95 | 1011.8 |
| 20260506140749 | 62 | 1 | 1.7 | 2.6 | 0.00 | 0.05 | 0.05 | 95 | 1011.9 |
| 20260506140246 | 62 | 222 | 0.9 | 0.9 | 0.05 | 0.05 | 0.05 | 95 | 1012.0 |
| 20260506135743 | 62 | 83 | 0.0 | 0.0 | 0.05 | 0.05 | 0.05 | 94 | 1012.0 |
| 20260506135239 | 62 | 250 | 0.0 | 0.9 | 0.07 | 0.04 | 0.04 | 94 | 1012.1 |
| 20260506134736 | 62 | 137 | 0.0 | 0.9 | 0.07 | 0.04 | 0.04 | 93 | 1012.4 |
| 20260506134232 | 62 | 301 | 0.9 | 1.7 | 0.07 | 0.03 | 0.03 | 93 | 1012.5 |
| 20260506133730 | 62 | 0 | 0.9 | 1.7 | 0.12 | 0.03 | 0.03 | 92 | 1012.3 |
| 20260506133226 | 63 | 174 | 0.9 | 1.7 | 0.05 | 0.02 | 0.02 | 91 | 1012.3 |
| 20260506132723 | 63 | 266 | 0.0 | 0.0 | 0.05 | 0.02 | 0.02 | 90 | 1012.1 |
| 20260506132220 | 63 | 232 | 0.0 | 0.0 | 0.07 | 0.01 | 0.01 | 89 | 1012.1 |
| 20260506131718 | 63 | 214 | 0.0 | 0.0 | 0.07 | 0.01 | 0.01 | 88 | 1011.9 |
| 20260506131214 | 64 | 354 | 0.0 | 0.9 | 0.00 | 0.00 | 0.00 | 87 | 1011.9 |
| 20260506130711 | 64 | 9 | 1.7 | 1.7 | 0.00 | 0.00 | 0.00 | 86 | 1012.0 |
| 20260506130208 | 64 | 332 | 1.7 | 2.6 | 0.00 | 0.00 | 0.00 | 83 | 1011.6 |
| 20260506125706 | 65 | 301 | 1.7 | 5.2 | 0.00 | 0.00 | 0.00 | 83 | 1011.6 |
| 20260506125204 | 65 | 256 | 0.0 | 0.0 | 0.00 | 0.00 | 0.00 | 82 | 1011.6 |
| 20260506124701 | 65 | 220 | 0.9 | 1.7 | 0.00 | 0.00 | 0.00 | 81 | 1011.8 |
| 20260506124159 | 65 | 281 | 1.7 | 1.7 | 0.00 | 0.00 | 0.00 | 82 | 1011.8 |
| 20260506123656 | 65 | 199 | 0.0 | 0.9 | 0.00 | 0.00 | 0.00 | 82 | 1011.7 |
| 20260506123155 | 65 | 40 | 0.9 | 1.7 | 0.00 | 0.00 | 0.00 | 80 | 1011.9 |
| 20260506122651 | 65 | 50 | 0.0 | 0.0 | 0.00 | 0.00 | 0.00 | 80 | 1012.0 |
| 20260506122149 | 65 | 215 | 0.9 | 1.7 | 0.00 | 0.00 | 0.00 | 80 | 1012.2 |
| 20260506121646 | 65 | 225 | 1.7 | 3.5 | 0.00 | 0.00 | 0.00 | 79 | 1012.1 |
| 20260506121143 | 65 | 125 | 1.7 | 2.6 | 0.00 | 0.00 | 0.00 | 78 | 1012.1 |
| 20260506120641 | 66 | 190 | 1.7 | 2.6 | 0.00 | 0.00 | 0.00 | 77 | 1012.0 |
| 20260506120138 | 66 | 297 | 0.0 | 0.0 | 0.00 | 0.00 | 0.00 | 76 | 1012.2 |
| 20260506115637 | 66 | 324 | 1.7 | 1.7 | 0.00 | 0.00 | 0.00 | 76 | 1012.1 |
| 20260506115135 | 66 | 23 | 0.0 | 0.0 | 0.00 | 0.00 | 0.00 | 76 | 1012.1 |
| 20260506114631 | 66 | 159 | 2.6 | 2.6 | 0.00 | 0.00 | 0.00 | 76 | 1012.1 |
| 20260506114129 | 66 | 19 | 0.0 | 0.9 | 0.00 | 0.00 | 0.00 | 75 | 1011.8 |
| 20260506113628 | 66 | 28 | 0.0 | 0.9 | 0.00 | 0.00 | 0.00 | 76 | 1011.7 |
| 20260506113124 | 66 | 35 | 0.0 | 0.9 | 0.00 | 0.00 | 0.00 | 75 | 1011.5 |
| 20260506112620 | 67 | 299 | 0.9 | 0.9 | 0.00 | 0.00 | 0.00 | 75 | 1011.5 |
| 20260506112118 | 66 | 160 | 0.0 | 0.0 | 0.00 | 0.00 | 0.00 | 75 | 1011.7 |
| 20260506111615 | 66 | 44 | 0.9 | 1.7 | 0.00 | 0.00 | 0.00 | 75 | 1011.6 |
| 20260506111113 | 66 | 154 | 1.7 | 1.7 | 0.00 | 0.00 | 0.00 | 75 | 1011.5 |
| 20260506110610 | 66 | 6 | 1.7 | 1.7 | 0.00 | 0.00 | 0.00 | 76 | 1011.5 |
| 20260506110108 | 66 | 148 | 0.0 | 0.0 | 0.00 | 0.00 | 0.00 | 75 | 1011.6 |
| 20260506105604 | 66 | 293 | 1.7 | 1.7 | 0.00 | 0.00 | 0.00 | 75 | 1011.4 |
| 20260506105101 | 66 | 99 | 0.9 | 0.9 | 0.00 | 0.00 | 0.00 | 75 | 1011.4 |
| 20260506104559 | 66 | 309 | 0.0 | 0.0 | 0.00 | 0.00 | 0.00 | 75 | 1011.1 |
| 20260506104056 | 66 | 220 | 0.9 | 1.7 | 0.00 | 0.00 | 0.00 | 75 | 1011.3 |
| 20260506103553 | 66 | 211 | 0.9 | 1.7 | 0.00 | 0.00 | 0.00 | 75 | 1011.2 |
| 20260506103050 | 66 | 200 | 0.0 | 0.0 | 0.00 | 0.00 | 0.00 | 75 | 1011.3 |
| 20260506102549 | 66 | 300 | 0.0 | 0.9 | 0.00 | 0.00 | 0.00 | 75 | 1011.3 |
| 20260506102046 | 66 | 172 | 3.5 | 5.2 | 0.00 | 0.00 | 0.00 | 75 | 1011.3 |
| 20260506101542 | 66 | 82 | 0.0 | 0.9 | 0.00 | 0.00 | 0.00 | 75 | 1011.4 |